Time;durP1;ratioP1;P1;durP2;ratioP2;P2;SDS_P1;SDS_P2;PMS_P1;PMS_P2;Temp;Humidity;BMP_temperature;BMP_pressure;BME280_temperature;BME280_humidity;BME280_pressure;Samples;Min_cycle;Max_cycle;Signal;HPM_P1;HPM_P2
2024/01/16 08:00:15;;;;;;;11.65;4.90;;;;;;;-145.49;100.00;55703.94;2083909;28;20585;-58
2024/01/16 08:01:17;;;;;;;7.20;3.97;;;;;;;-5.41;85.36;95977.19;2081681;28;20263;-58
2024/01/16 08:07:57;;;;;;;10.82;3.72;;;;;;;-5.12;84.31;95980.75;2083963;27;20555;-59
2024/01/16 09:13:41;;;;;;;8.73;3.45;;;;;;;-3.34;76.68;96014.41;2090655;28;20551;-60
2024/01/16 09:14:42;;;;;;;9.32;2.72;;;;;;;-3.35;76.10;96003.34;2089111;28;20333;-60
2024/01/16 09:15:43;;;;;;;6.75;3.20;;;;;;;-3.14;75.50;96006.72;2090672;28;21031;-60
2024/01/16 09:16:45;;;;;;;7.07;2.50;;;;;;;-3.06;75.17;96006.72;2086928;28;20366;-60
2024/01/16 09:17:46;;;;;;;7.47;2.95;;;;;;;-2.82;73.97;96013.47;2086557;28;20247;-60
2024/01/16 09:18:48;;;;;;;10.32;3.97;;;;;;;-2.74;74.61;96014.31;2086035;28;20284;-60
2024/01/16 09:19:50;;;;;;;7.70;3.22;;;;;;;-2.58;74.46;96016.84;2086146;28;20576;-60
2024/01/16 09:20:51;;;;;;;7.15;3.67;;;;;;;-2.54;73.97;96015.97;2086541;28;20196;-60
2024/01/16 09:21:52;;;;;;;8.27;3.08;;;;;;;-2.48;73.04;96014.25;2084029;28;20248;-57
2024/01/16 09:22:54;;;;;;;8.25;3.40;;;;;;;-2.37;73.08;96013.34;2086512;28;20692;-58
2024/01/16 09:23:55;;;;;;;8.98;3.70;;;;;;;-2.19;72.10;96015.81;2086726;28;20283;-58
2024/01/16 09:24:57;;;;;;;6.28;2.67;;;;;;;-1.96;71.51;96009.75;2086077;28;20627;-58
2024/01/16 09:25:58;;;;;;;8.52;3.28;;;;;;;-1.94;72.18;96014.84;2079166;28;20266;-58
2024/01/16 09:27:00;;;;;;;7.57;3.08;;;;;;;-1.67;70.82;96011.28;2077624;28;20308;-58
2024/01/16 09:28:02;;;;;;;9.13;3.90;;;;;;;-1.42;70.81;96016.22;2078387;28;20201;-58
2024/01/16 09:29:03;;;;;;;7.20;3.50;;;;;;;-1.22;69.66;96000.69;2078456;28;20204;-59
2024/01/16 09:30:07;;;;;;;8.60;3.80;;;;;;;-1.22;69.34;96014.34;2078445;28;20229;-57
2024/01/16 09:31:08;;;;;;;9.02;4.18;;;;;;;-1.15;69.34;96007.47;2078637;28;20293;-57
2024/01/16 09:32:10;;;;;;;8.35;3.78;;;;;;;-1.17;68.97;96006.59;2086779;28;20201;-57
2024/01/16 09:33:13;;;;;;;9.88;3.92;;;;;;;-0.98;68.29;96004.72;2086433;28;20304;-57
2024/01/16 09:34:15;;;;;;;10.02;3.45;;;;;;;-1.17;69.29;96011.72;2086083;28;20258;-57
2024/01/16 09:35:16;;;;;;;10.52;4.50;;;;;;;-1.33;68.58;96014.44;2086013;28;20193;-57
2024/01/16 09:36:18;;;;;;;11.43;4.32;;;;;;;-1.45;69.66;96011.13;2086109;28;20848;-57
2024/01/16 09:37:19;;;;;;;8.32;3.65;;;;;;;-1.46;69.87;96010.28;2086428;28;20196;-57
2024/01/16 09:38:21;;;;;;;6.50;3.10;;;;;;;-1.45;70.29;96014.50;2086152;28;20197;-57
2024/01/16 09:39:24;;;;;;;9.65;3.38;;;;;;;-1.38;69.69;96015.34;2086603;28;20644;-57
2024/01/16 09:40:26;;;;;;;8.98;3.85;;;;;;;-1.50;69.90;96016.25;2086375;28;20207;-58
2024/01/16 09:41:27;;;;;;;7.65;3.30;;;;;;;-1.59;70.54;96019.75;2085625;28;20224;-57
2024/01/16 09:42:29;;;;;;;13.35;3.95;;;;;;;-1.66;70.46;96011.25;2086503;28;20197;-57
2024/01/16 09:43:32;;;;;;;12.57;3.55;;;;;;;-1.43;69.79;96011.97;2086628;28;20193;-60
2024/01/16 09:44:34;;;;;;;14.82;3.20;;;;;;;-1.52;69.15;96007.75;2085268;28;20243;-60
2024/01/16 09:45:37;;;;;;;6.93;3.55;;;;;;;-1.48;69.42;96012.00;2086417;28;20246;-60
2024/01/16 09:46:41;;;;;;;8.93;4.20;;;;;;;-1.54;69.23;96012.03;2085784;28;20228;-59
2024/01/16 09:47:43;;;;;;;6.95;3.20;;;;;;;-1.11;68.99;96000.59;2083838;28;20288;-60
2024/01/16 09:48:45;;;;;;;7.18;3.20;;;;;;;-0.85;68.01;96011.44;2082017;28;20290;-60
2024/01/16 09:49:48;;;;;;;6.03;2.85;;;;;;;-0.78;67.01;96013.97;2085739;28;20197;-60
2024/01/16 09:50:50;;;;;;;8.90;3.35;;;;;;;-0.48;67.39;95997.38;2086456;28;20204;-60
2024/01/16 09:51:52;;;;;;;8.98;3.17;;;;;;;-0.27;66.60;96001.41;2085322;28;20237;-60
2024/01/16 09:52:53;;;;;;;12.23;3.15;;;;;;;-0.11;65.41;95998.66;2086435;28;20334;-60
2024/01/16 09:54:01;;;;;;;7.07;3.05;;;;;;;0.21;65.35;95993.06;2087600;28;20217;-60
2024/01/16 09:55:04;;;;;;;10.50;4.30;;;;;;;0.36;64.92;95993.75;2086150;28;20201;-61
2024/01/16 09:56:13;;;;;;;14.05;5.35;;;;;;;0.52;64.35;95984.06;2086014;28;20889;-61
2024/01/16 09:57:22;;;;;;;14.32;4.30;;;;;;;0.66;64.02;95987.28;2086313;28;20246;-61
2024/01/16 09:58:25;;;;;;;13.00;4.43;;;;;;;0.59;63.46;95985.66;2086265;28;20212;-61
2024/01/16 09:59:30;;;;;;;9.15;4.18;;;;;;;0.28;64.21;95986.13;2086183;28;20691;-61
2024/01/16 10:00:33;;;;;;;8.88;4.75;;;;;;;0.38;64.71;95989.41;2086278;28;20233;-61
2024/01/16 10:01:36;;;;;;;8.80;4.10;;;;;;;0.36;64.39;95988.59;2086561;28;20224;-61
2024/01/16 10:02:40;;;;;;;7.15;3.45;;;;;;;0.15;63.72;95986.31;2085993;28;20201;-61
2024/01/16 10:03:45;;;;;;;8.25;3.65;;;;;;;0.37;64.53;95995.41;2085944;28;20558;-61
2024/01/16 10:04:46;;;;;;;8.38;3.33;;;;;;;0.44;64.07;95999.59;2086268;28;20235;-61
2024/01/16 10:05:48;;;;;;;9.73;4.03;;;;;;;0.57;63.81;95980.56;2086211;28;20196;-60
2024/01/16 10:06:51;;;;;;;7.35;2.80;;;;;;;1.06;63.13;95994.28;2085770;28;20217;-61
2024/01/16 10:07:54;;;;;;;5.63;3.03;;;;;;;1.35;62.49;95989.53;2086263;28;20225;-60
2024/01/16 10:08:55;;;;;;;8.38;3.08;;;;;;;1.50;61.85;95993.50;2086367;28;20197;-61
2024/01/16 10:09:57;;;;;;;6.90;2.97;;;;;;;2.00;60.72;95999.38;2086298;28;20560;-60
2024/01/16 10:10:59;;;;;;;6.88;3.35;;;;;;;2.04;59.65;95982.94;2085211;28;20205;-61
2024/01/16 10:12:02;;;;;;;7.22;3.22;;;;;;;2.05;59.83;95991.53;2085633;28;20193;-60
2024/01/16 10:13:04;;;;;;;7.90;2.63;;;;;;;2.21;59.41;95990.34;2086255;28;20228;-61
2024/01/16 10:14:06;;;;;;;7.90;3.35;;;;;;;2.60;58.69;95986.88;2086256;28;20572;-60
2024/01/16 10:15:09;;;;;;;5.85;3.13;;;;;;;3.02;58.26;95991.00;2086007;28;20227;-60
2024/01/16 10:16:10;;;;;;;8.30;3.75;;;;;;;3.12;57.47;95984.72;2085590;28;20197;-61
2024/01/16 10:17:15;;;;;;;8.48;3.20;;;;;;;2.76;56.93;95987.34;2085931;28;20204;-60
2024/01/16 10:18:25;;;;;;;14.98;3.80;;;;;;;2.84;57.64;95963.97;2085141;28;20284;-59
2024/01/16 10:19:28;;;;;;;6.70;3.50;;;;;;;3.19;57.12;95967.38;2085822;28;20659;-60
2024/01/16 10:20:46;;;;;;;10.57;3.28;;;;;;;3.48;55.19;95969.16;2086407;28;20193;-60
2024/01/16 10:21:48;;;;;;;7.10;3.67;;;;;;;3.08;56.02;95954.75;2085580;28;20304;-60
2024/01/16 10:22:53;;;;;;;6.80;3.58;;;;;;;3.48;56.23;95953.69;2085472;28;20606;-60
2024/01/16 10:23:55;;;;;;;6.53;3.55;;;;;;;4.02;54.97;95959.03;2085475;28;20189;-59
2024/01/16 10:25:08;;;;;;;12.02;3.80;;;;;;;4.30;53.30;95956.47;2080171;28;20285;-60
2024/01/16 10:26:14;;;;;;;5.82;3.03;;;;;;;4.34;54.27;95958.09;2079873;28;20686;-59
2024/01/16 10:27:18;;;;;;;8.20;3.47;;;;;;;5.10;52.71;95957.38;2079078;28;20204;-59
2024/01/16 10:28:20;;;;;;;8.23;3.00;;;;;;;5.50;51.21;95954.25;2081345;28;20359;-59
2024/01/16 10:29:26;;;;;;;10.82;3.50;;;;;;;5.21;50.88;95948.34;2080589;28;20201;-59
2024/01/16 10:30:43;;;;;;;6.95;3.05;;;;;;;5.39;51.26;95951.19;2080106;28;20197;-59
2024/01/16 10:31:45;;;;;;;7.90;3.00;;;;;;;4.92;51.12;95953.66;2085665;28;20224;-59
2024/01/16 10:32:48;;;;;;;15.77;3.42;;;;;;;4.92;52.11;95946.75;2088146;28;20208;-59
2024/01/16 10:33:50;;;;;;;8.35;3.10;;;;;;;4.87;52.35;95946.88;2080216;28;20825;-60
2024/01/16 10:35:08;;;;;;;5.95;3.15;;;;;;;5.20;52.40;95943.22;2079213;28;20208;-59
2024/01/16 10:36:12;;;;;;;9.77;3.60;;;;;;;4.74;51.94;95943.84;2079490;28;20209;-60
2024/01/16 10:37:13;;;;;;;8.52;4.03;;;;;;;5.15;52.50;95948.53;2080304;28;20204;-59
2024/01/16 10:38:22;;;;;;;9.95;3.95;;;;;;;5.14;51.83;95940.84;2080309;28;20193;-62
2024/01/16 10:39:24;;;;;;;10.13;3.67;;;;;;;5.52;51.23;95938.66;2080584;28;20193;-59
2024/01/16 10:40:38;;;;;;;9.07;4.05;;;;;;;-145.49;100.00;55703.94;2080162;28;20209;-59
2024/01/16 10:41:40;;;;;;;19.15;4.07;;;;;;;-145.49;100.00;55703.94;2080000;28;20279;-59
2024/01/16 10:42:43;;;;;;;7.40;2.90;;;;;;;-145.49;100.00;55703.94;2080574;28;20281;-60
2024/01/16 10:43:44;;;;;;;7.82;3.55;;;;;;;-145.49;100.00;55703.94;2080513;28;20608;-59
2024/01/16 10:44:55;;;;;;;11.40;3.10;;;;;;;-145.49;100.00;55703.94;2080585;28;20235;-59
2024/01/16 10:46:17;;;;;;;9.85;3.65;;;;;;;-145.49;100.00;55703.94;2075334;28;20206;-59
2024/01/16 10:47:18;;;;;;;8.02;3.00;;;;;;;5.52;51.23;95938.66;2078850;28;20249;-60
2024/01/16 10:48:19;;;;;;;8.48;3.08;;;;;;;7.37;46.04;95948.75;2080515;28;20242;-60
2024/01/16 10:49:21;;;;;;;7.97;3.00;;;;;;;7.11;46.80;95963.69;2080511;28;20201;-60
2024/01/16 10:50:24;;;;;;;14.88;3.60;;;;;;;7.01;46.75;95939.03;2080395;28;20651;-60
2024/01/16 10:51:26;;;;;;;7.88;3.25;;;;;;;6.68;47.70;95948.09;2074269;28;20218;-60
2024/01/16 10:52:33;;;;;;;7.38;3.20;;;;;;;6.79;47.92;95957.22;2071173;28;20438;-60
2024/01/16 10:53:35;;;;;;;12.68;3.03;;;;;;;6.62;47.46;95957.91;2070636;28;20678;-60
2024/01/16 10:54:41;;;;;;;8.55;3.50;;;;;;;6.38;47.60;95948.41;2072242;28;20704;-60
2024/01/16 10:55:51;;;;;;;9.35;3.53;;;;;;;6.58;47.59;95938.16;2071868;28;20198;-60
2024/01/16 10:56:53;;;;;;;14.93;3.80;;;;;;;6.99;47.26;95933.88;2070943;28;20225;-60
2024/01/16 10:57:56;;;;;;;9.73;3.45;;;;;;;7.71;46.68;95939.47;2071564;28;20205;-60
2024/01/16 10:59:33;;;;;;;13.85;3.28;;;;;;;7.61;45.88;95933.00;2071166;28;20206;-60
2024/01/16 11:00:39;;;;;;;10.35;3.38;;;;;;;7.88;45.46;95917.09;2071703;28;20246;-60
2024/01/16 11:01:45;;;;;;;5.60;2.80;;;;;;;8.69;44.30;95929.81;2071595;28;20230;-60
2024/01/16 11:03:24;;;;;;;8.30;3.30;;;;;;;7.03;46.28;95930.25;2071858;28;20194;-60
2024/01/16 11:04:27;;;;;;;10.52;3.47;;;;;;;6.16;47.94;95944.97;2066048;28;20202;-60
2024/01/16 11:05:33;;;;;;;9.10;3.50;;;;;;;5.88;48.54;95936.47;2068384;28;20842;-60
2024/01/16 11:06:35;;;;;;;17.65;3.30;;;;;;;4.78;49.48;95920.50;2066990;28;20218;-59
2024/01/16 11:07:39;;;;;;;8.60;3.47;;;;;;;4.83;50.82;95934.94;2071954;28;20285;-60
2024/01/16 11:08:41;;;;;;;6.40;3.30;;;;;;;3.90;52.44;95942.19;2071962;28;20340;-60
2024/01/16 11:09:44;;;;;;;13.88;4.13;;;;;;;3.62;53.36;95942.97;2072119;28;20198;-60
2024/01/16 11:10:48;;;;;;;7.70;2.78;;;;;;;2.80;54.48;95950.28;2071979;28;20252;-60
2024/01/16 11:11:53;;;;;;;5.60;2.42;;;;;;;2.66;55.35;95940.31;2071326;28;20644;-60
2024/01/16 11:12:59;;;;;;;8.68;2.97;;;;;;;2.60;55.41;95940.47;2071727;28;20202;-60
2024/01/16 11:14:03;;;;;;;7.07;2.67;;;;;;;2.34;56.24;95941.94;2069808;28;20777;-60
2024/01/16 11:15:07;;;;;;;9.40;3.22;;;;;;;2.35;56.71;95943.63;2071557;28;20522;-60
2024/01/16 11:16:10;;;;;;;6.10;2.78;;;;;;;2.68;56.35;95935.97;2070703;28;20199;-60
2024/01/16 11:17:18;;;;;;;7.88;2.95;;;;;;;4.28;53.75;95921.22;2070674;28;20280;-59
2024/01/16 11:18:20;;;;;;;8.63;3.97;;;;;;;5.16;51.41;95926.94;2072166;28;20564;-60
2024/01/16 11:19:22;;;;;;;11.23;4.32;;;;;;;5.89;49.87;95919.16;2071747;28;20198;-65
2024/01/16 11:20:44;;;;;;;9.50;3.45;;;;;;;4.94;49.73;95920.81;2071923;28;20260;-65
2024/01/16 11:21:49;;;;;;;10.93;3.03;;;;;;;5.72;49.94;95922.38;2054777;28;20222;-65
2024/01/16 11:22:54;;;;;;;5.40;2.40;;;;;;;5.66;49.07;95923.47;2071497;28;20986;-65
2024/01/16 11:23:55;;;;;;;8.65;3.13;;;;;;;6.56;48.42;95911.44;2072014;28;20233;-64
2024/01/16 11:25:18;;;;;;;7.32;2.75;;;;;;;6.99;47.00;95901.88;2072180;28;20198;-65
2024/01/16 11:26:33;;;;;;;10.15;3.13;;;;;;;5.98;48.09;95910.19;2070536;28;20281;-65
2024/01/16 11:27:37;;;;;;;8.57;3.75;;;;;;;6.64;47.22;95901.59;2071959;28;20553;-64
2024/01/16 11:28:39;;;;;;;5.50;2.95;;;;;;;7.12;47.23;95892.69;2072042;28;20281;-65
2024/01/16 11:29:41;;;;;;;9.38;3.17;;;;;;;6.72;46.51;95906.47;2071900;28;20206;-64
2024/01/16 11:30:43;;;;;;;7.20;3.30;;;;;;;6.48;47.28;95899.63;2072317;28;20195;-65
2024/01/16 11:31:45;;;;;;;8.65;3.70;;;;;;;6.95;47.82;95906.34;2070558;28;20729;-63
2024/01/16 11:32:47;;;;;;;8.20;3.05;;;;;;;7.00;46.75;95899.22;2072045;28;20277;-63
2024/01/16 11:33:48;;;;;;;14.00;3.80;;;;;;;7.57;46.30;95900.25;2071844;28;20225;-63
2024/01/16 11:34:55;;;;;;;8.20;3.72;;;;;;;7.78;45.77;95904.50;2072309;28;20620;-63
2024/01/16 11:35:57;;;;;;;10.55;3.95;;;;;;;7.07;46.44;95894.59;2071305;28;20644;-62
2024/01/16 11:37:00;;;;;;;12.15;4.97;;;;;;;7.14;47.06;95895.19;2070851;28;20264;-63
2024/01/16 11:38:09;;;;;;;11.18;4.20;;;;;;;6.19;47.54;95900.78;2070979;28;20225;-63
2024/01/16 11:39:17;;;;;;;5.40;2.50;;;;;;;6.33;48.21;95897.66;2070373;28;20202;-62
2024/01/16 11:40:22;;;;;;;10.07;2.67;;;;;;;6.63;47.57;95895.56;2071918;28;20229;-63
2024/01/16 11:41:48;;;;;;;6.68;3.20;;;;;;;6.32;47.90;95889.03;2071031;28;20253;-63
2024/01/16 11:42:52;;;;;;;6.55;2.40;;;;;;;6.76;46.89;95887.28;2071581;28;20228;-63
2024/01/16 11:43:54;;;;;;;10.43;3.53;;;;;;;6.85;47.27;95889.47;2062464;28;20206;-63
2024/01/16 11:44:55;;;;;;;12.05;3.30;;;;;;;6.53;46.91;95889.91;2062925;28;20290;-63
2024/01/16 11:45:58;;;;;;;6.55;3.08;;;;;;;6.40;47.66;95874.91;2072062;28;20201;-61
2024/01/16 11:47:01;;;;;;;27.50;11.77;;;;;;;6.35;47.07;95881.13;2071084;28;20230;-65
2024/01/16 11:48:08;;;;;;;10.48;2.40;;;;;;;6.10;47.15;95877.81;2063613;28;20768;-60
2024/01/16 11:49:10;;;;;;;4.38;2.38;;;;;;;5.81;47.67;95872.81;2071235;28;20805;-62
2024/01/16 11:50:26;;;;;;;4.07;2.13;;;;;;;6.07;47.34;95872.72;2071550;28;20190;-61
2024/01/16 11:51:29;;;;;;;6.85;2.42;;;;;;;6.56;47.37;95860.41;2066626;28;20587;-64
2024/01/16 11:52:46;;;;;;;7.68;3.17;;;;;;;6.99;46.72;95857.75;2072326;28;20229;-62
2024/01/16 11:53:47;;;;;;;4.53;2.40;;;;;;;6.58;47.20;95849.94;2071751;28;20935;-61
2024/01/16 11:54:50;;;;;;;4.97;2.50;;;;;;;6.46;46.81;95862.53;2070704;28;20806;-61
2024/01/16 11:56:22;;;;;;;7.50;2.50;;;;;;;6.81;46.77;95841.22;2062601;28;20218;-62
2024/01/16 11:58:17;;;;;;;7.40;2.50;;;;;;;6.63;46.49;95848.03;2070221;28;20217;-62
2024/01/16 11:59:37;;;;;;;7.13;2.40;;;;;;;5.73;47.26;95843.75;2070668;28;20206;-62
2024/01/16 12:00:45;;;;;;;6.45;1.88;;;;;;;6.40;47.65;95851.56;2071206;28;20190;-62
2024/01/16 12:01:50;;;;;;;6.63;2.30;;;;;;;6.95;46.52;95849.25;2068450;28;20222;-62
2024/01/16 12:02:55;;;;;;;6.68;2.13;;;;;;;6.40;47.11;95852.41;2071488;28;20259;-63
2024/01/16 12:04:07;;;;;;;6.93;1.90;;;;;;;6.08;46.62;95851.94;2072032;28;20202;-63
2024/01/16 12:05:10;;;;;;;3.92;1.83;;;;;;;6.41;45.18;95833.31;2071330;28;20309;-63
2024/01/16 12:06:16;;;;;;;6.10;1.85;;;;;;;7.46;44.16;95838.41;2064357;28;20194;-62
2024/01/16 12:07:17;;;;;;;5.35;1.42;;;;;;;6.28;45.41;95834.75;2070861;28;20209;-63
2024/01/16 12:08:21;;;;;;;7.78;2.45;;;;;;;6.80;45.46;95829.16;2071975;28;20209;-63
2024/01/16 12:09:28;;;;;;;5.45;2.40;;;;;;;7.42;44.82;95823.88;2071618;28;20194;-63
2024/01/16 12:10:29;;;;;;;12.80;2.55;;;;;;;7.61;44.88;95829.06;2067814;28;20206;-63
2024/01/16 12:11:31;;;;;;;4.80;2.17;;;;;;;7.21;45.67;95829.09;2066980;28;20233;-63
2024/01/16 12:12:44;;;;;;;5.65;1.90;;;;;;;6.07;46.06;95826.94;2071425;28;20194;-63
2024/01/16 12:14:01;;;;;;;4.93;2.25;;;;;;;6.73;46.22;95822.53;2071688;28;20281;-63
2024/01/16 12:15:04;;;;;;;10.43;2.10;;;;;;;5.83;46.24;95819.19;2071197;28;20294;-63
2024/01/16 12:16:06;;;;;;;10.82;2.38;;;;;;;6.10;46.63;95832.00;2071292;28;20194;-63
2024/01/16 12:17:14;;;;;;;7.85;2.30;;;;;;;6.03;46.89;95827.94;2071609;28;20206;-63
2024/01/16 12:18:18;;;;;;;7.13;1.95;;;;;;;6.16;46.23;95821.38;2075777;28;20262;-59
2024/01/16 12:19:35;;;;;;;7.30;2.40;;;;;;;7.00;46.59;95807.53;2074204;28;20228;-58
2024/01/16 12:20:37;;;;;;;8.75;3.17;;;;;;;6.84;46.19;95825.50;2070850;28;20217;-58
2024/01/16 12:21:43;;;;;;;9.32;2.95;;;;;;;7.17;45.04;95815.44;2069458;28;20229;-58
2024/01/16 12:22:45;;;;;;;8.70;2.25;;;;;;;6.74;44.86;95819.84;2070985;28;20613;-58
2024/01/16 12:23:47;;;;;;;4.65;2.22;;;;;;;7.56;44.21;95812.84;2070973;28;20202;-58
2024/01/16 12:25:04;;;;;;;9.30;2.58;;;;;;;6.89;45.06;95804.56;2071422;28;20926;-58
2024/01/16 12:26:08;;;;;;;7.50;2.85;;;;;;;6.78;45.10;95807.59;2070602;28;20333;-59
2024/01/16 12:27:10;;;;;;;10.60;2.53;;;;;;;6.51;45.48;95810.47;2071761;28;20217;-62
2024/01/16 12:28:17;;;;;;;4.97;1.73;;;;;;;6.69;45.41;95794.13;2071247;28;20682;-62
2024/01/16 12:29:32;;;;;;;9.00;3.00;;;;;;;6.56;46.16;95799.91;2071213;28;20198;-65
2024/01/16 12:30:37;;;;;;;7.65;2.10;;;;;;;6.12;46.07;95801.69;2071008;28;20249;-59
2024/01/16 12:31:39;;;;;;;6.28;2.30;;;;;;;6.18;46.40;95803.16;2070064;28;20217;-58
2024/01/16 12:32:41;;;;;;;6.15;2.10;;;;;;;5.85;46.49;95809.63;2071943;28;20206;-58
2024/01/16 12:33:43;;;;;;;6.47;1.95;;;;;;;6.34;46.51;95798.19;2071054;28;20290;-58
2024/01/16 12:35:02;;;;;;;3.70;1.25;;;;;;;6.27;47.39;95787.25;2070451;28;20206;-58
2024/01/16 12:36:04;;;;;;;4.10;1.90;;;;;;;6.42;46.46;95785.75;2063389;28;20205;-59
2024/01/16 12:37:07;;;;;;;8.60;2.08;;;;;;;6.65;45.70;95795.16;2070849;28;20657;-59
2024/01/16 12:38:10;;;;;;;6.22;2.17;;;;;;;6.41;45.93;95796.19;2069894;28;20298;-58
2024/01/16 12:39:12;;;;;;;4.72;2.13;;;;;;;5.79;46.26;95798.63;2071471;28;20222;-58
2024/01/16 12:40:14;;;;;;;3.03;1.42;;;;;;;5.70;46.27;95798.09;2071320;28;20293;-58
2024/01/16 12:41:16;;;;;;;3.65;1.70;;;;;;;5.70;46.56;95798.09;2070613;28;20194;-60
2024/01/16 12:42:22;;;;;;;5.30;2.38;;;;;;;6.00;46.83;95805.59;2071647;28;20198;-58
2024/01/16 12:43:26;;;;;;;6.07;2.00;;;;;;;6.16;46.49;95805.00;2072591;28;20193;-57
2024/01/16 12:44:28;;;;;;;5.25;2.22;;;;;;;6.08;46.78;95814.81;2071043;28;20288;-58
2024/01/16 12:45:31;;;;;;;7.97;2.33;;;;;;;6.11;45.99;95812.13;2071613;28;21068;-58
2024/01/16 12:46:32;;;;;;;4.80;1.70;;;;;;;5.76;46.56;95809.13;2061849;28;20907;-61
2024/01/16 12:47:34;;;;;;;3.72;1.83;;;;;;;5.50;46.75;95798.84;2070938;28;20186;-62
2024/01/16 12:48:35;;;;;;;5.72;2.10;;;;;;;5.60;47.38;95799.38;2071305;28;20251;-62
2024/01/16 12:49:42;;;;;;;7.20;2.17;;;;;;;5.64;47.58;95806.09;2070033;28;20201;-62
2024/01/16 12:50:45;;;;;;;7.60;1.60;;;;;;;5.62;47.62;95796.69;2071163;28;20224;-58
2024/01/16 12:51:46;;;;;;;5.35;1.70;;;;;;;5.50;46.96;95795.44;2069679;28;20252;-58
2024/01/16 12:53:10;;;;;;;7.43;2.10;;;;;;;5.58;47.48;95790.78;2071356;28;20202;-61
2024/01/16 12:54:16;;;;;;;8.13;2.05;;;;;;;5.22;47.85;95797.31;2071463;28;20241;-59
2024/01/16 12:55:19;;;;;;;5.97;1.80;;;;;;;4.67;47.69;95784.63;2070407;28;20209;-57
2024/01/16 12:56:23;;;;;;;3.63;1.80;;;;;;;5.67;48.11;95785.25;2070628;28;20576;-58
2024/01/16 12:57:39;;;;;;;4.03;1.60;;;;;;;5.55;46.72;95786.56;2072214;28;20198;-58
2024/01/16 12:58:43;;;;;;;5.65;1.95;;;;;;;5.94;46.40;95792.88;2070872;28;20206;-58
2024/01/16 12:59:45;;;;;;;4.20;1.77;;;;;;;6.13;46.83;95792.13;2071830;28;20284;-58
2024/01/16 13:00:48;;;;;;;3.30;1.65;;;;;;;6.05;46.78;95776.91;2071487;28;20194;-58
2024/01/16 13:01:49;;;;;;;4.15;1.77;;;;;;;7.03;45.91;95771.03;2070540;28;20214;-58
2024/01/16 13:02:52;;;;;;;5.82;1.40;;;;;;;6.55;45.49;95793.84;2070951;28;20198;-59
2024/01/16 13:03:54;;;;;;;6.75;2.00;;;;;;;7.00;45.63;95779.81;2070743;28;20641;-58
2024/01/16 13:04:59;;;;;;;5.68;1.80;;;;;;;6.51;45.01;95790.56;2071305;28;20213;-58
2024/01/16 13:06:04;;;;;;;8.13;2.10;;;;;;;6.22;46.10;95783.97;2071454;28;20198;-62
2024/01/16 13:07:06;;;;;;;2.85;1.70;;;;;;;6.32;46.25;95754.19;2071154;28;20253;-61
2024/01/16 13:08:08;;;;;;;4.57;1.67;;;;;;;6.28;45.27;95781.13;2071724;28;20205;-62
2024/01/16 13:09:15;;;;;;;6.05;2.10;;;;;;;6.74;45.70;95769.72;2071658;28;20197;-62
2024/01/16 13:10:25;;;;;;;3.60;1.60;;;;;;;6.17;45.91;95766.03;2071172;28;20650;-66
2024/01/16 13:11:26;;;;;;;5.10;1.95;;;;;;;5.92;45.63;95778.25;2070649;28;20222;-58
2024/01/16 13:12:39;;;;;;;9.93;2.20;;;;;;;5.30;46.10;95773.72;2070901;28;20225;-58
2024/01/16 13:13:41;;;;;;;3.08;1.52;;;;;;;5.92;46.26;95775.66;2071640;28;20260;-59
2024/01/16 13:14:43;;;;;;;2.60;1.40;;;;;;;5.63;46.47;95769.91;2071502;28;20205;-58
2024/01/16 13:15:45;;;;;;;3.45;1.20;;;;;;;5.59;45.77;95768.31;2071656;28;20280;-60
2024/01/16 13:16:47;;;;;;;5.70;1.50;;;;;;;5.48;46.05;95755.81;2070631;28;20711;-58
2024/01/16 13:17:49;;;;;;;5.95;1.58;;;;;;;5.49;45.66;95754.91;2071315;28;20248;-58
2024/01/16 13:19:01;;;;;;;3.95;1.50;;;;;;;6.05;46.11;95753.56;2071143;28;20225;-58
2024/01/16 13:20:09;;;;;;;8.02;2.22;;;;;;;5.56;45.81;95751.16;2070568;28;20209;-62
2024/01/16 13:21:11;;;;;;;5.13;2.00;;;;;;;5.23;46.00;95744.63;2069272;28;20205;-62
2024/01/16 13:22:13;;;;;;;4.93;1.35;;;;;;;5.64;46.03;95738.75;2071070;28;20232;-58
2024/01/16 13:23:14;;;;;;;5.47;1.52;;;;;;;5.65;46.32;95742.19;2071345;28;20288;-58
2024/01/16 13:24:23;;;;;;;4.75;1.35;;;;;;;5.55;45.44;95746.91;2071341;28;20285;-57
2024/01/16 13:25:26;;;;;;;6.07;1.58;;;;;;;5.10;46.23;95753.75;2070892;28;20212;-58
2024/01/16 13:26:27;;;;;;;7.38;1.90;;;;;;;4.95;46.69;95725.84;2070756;28;20225;-62
2024/01/16 13:27:29;;;;;;;4.68;1.70;;;;;;;5.17;46.09;95747.44;2071121;28;20198;-58
2024/01/16 13:28:31;;;;;;;8.90;1.65;;;;;;;5.73;46.89;95746.16;2071348;28;20206;-58
2024/01/16 13:29:35;;;;;;;5.07;1.30;;;;;;;5.91;46.26;95748.91;2071973;28;20248;-59
2024/01/16 13:30:37;;;;;;;9.35;1.70;;;;;;;5.56;45.85;95744.25;2071727;28;20201;-58
2024/01/16 13:31:48;;;;;;;3.45;1.60;;;;;;;5.52;46.03;95754.75;2069750;28;20287;-58
2024/01/16 13:32:49;;;;;;;4.80;2.20;;;;;;;5.12;46.69;95743.38;2070562;28;20228;-58
2024/01/16 13:33:51;;;;;;;3.78;1.40;;;;;;;4.91;46.61;95740.66;2071365;28;20194;-58
2024/01/16 13:34:53;;;;;;;4.30;1.80;;;;;;;4.98;47.35;95743.88;2071323;28;20198;-57
2024/01/16 13:35:54;;;;;;;11.15;1.90;;;;;;;5.34;47.80;95733.84;2071309;28;20739;-58
2024/01/16 13:37:00;;;;;;;6.53;1.80;;;;;;;5.46;46.65;95750.69;2068556;28;20238;-58
2024/01/16 13:38:16;;;;;;;7.13;2.38;;;;;;;5.70;46.58;95743.69;2069986;28;20210;-60
2024/01/16 13:39:20;;;;;;;16.55;6.85;;;;;;;5.49;45.84;95740.19;2071190;28;20281;-62
2024/01/16 13:40:22;;;;;;;6.88;1.70;;;;;;;5.37;45.80;95732.91;2071261;28;20601;-61
2024/01/16 13:41:25;;;;;;;8.57;4.80;;;;;;;5.46;46.26;95742.91;2069792;28;20258;-61
2024/01/16 13:42:27;;;;;;;3.25;1.83;;;;;;;5.84;46.16;95735.38;2070502;28;20202;-62
2024/01/16 13:43:29;;;;;;;4.15;2.10;;;;;;;5.40;46.06;95740.56;2071382;28;20202;-61
2024/01/16 13:44:30;;;;;;;3.40;1.42;;;;;;;5.25;46.09;95736.81;2071534;28;20194;-58
2024/01/16 13:45:33;;;;;;;3.25;1.52;;;;;;;5.29;45.69;95743.53;2071212;28;20437;-58
2024/01/16 13:46:35;;;;;;;7.65;2.08;;;;;;;5.00;46.08;95736.88;2069508;28;20519;-58
2024/01/16 13:47:57;;;;;;;6.28;1.80;;;;;;;4.62;46.44;95739.97;2070268;28;20209;-58
2024/01/16 13:48:59;;;;;;;4.85;1.50;;;;;;;4.46;46.59;95733.66;2071189;28;20206;-58
2024/01/16 13:50:03;;;;;;;5.63;1.85;;;;;;;4.99;46.48;95742.94;2071329;28;20705;-61
2024/01/16 13:51:05;;;;;;;3.67;1.50;;;;;;;4.13;46.54;95741.66;2070541;28;20585;-58
2024/01/16 13:52:06;;;;;;;10.32;2.00;;;;;;;4.71;46.75;95731.03;2069781;28;20269;-58
2024/01/16 13:53:07;;;;;;;4.20;1.58;;;;;;;4.48;46.43;95742.19;2071188;28;20208;-58
2024/01/16 13:54:09;;;;;;;4.75;2.60;;;;;;;3.43;48.40;95731.81;2071167;28;20227;-57
2024/01/16 13:55:11;;;;;;;6.07;2.70;;;;;;;4.03;49.13;95739.38;2071482;28;20553;-58
2024/01/16 13:56:12;;;;;;;5.53;1.85;;;;;;;4.01;48.56;95728.25;2072481;28;20225;-58
2024/01/16 13:57:14;;;;;;;3.42;1.73;;;;;;;5.05;47.58;95730.66;2071249;28;20202;-61
2024/01/16 13:58:16;;;;;;;5.10;2.13;;;;;;;4.78;46.51;95727.31;2071076;28;20228;-61
2024/01/16 13:59:17;;;;;;;5.15;2.70;;;;;;;4.47;47.60;95731.00;2071334;28;20199;-61
2024/01/16 14:00:19;;;;;;;9.15;2.75;;;;;;;4.55;47.43;95726.41;2072211;28;20198;-61
2024/01/16 14:01:21;;;;;;;7.22;2.35;;;;;;;4.46;47.18;95726.72;2070400;28;20209;-61
2024/01/16 14:02:23;;;;;;;4.55;1.85;;;;;;;4.61;47.18;95730.53;2068853;28;20205;-58
2024/01/16 14:03:24;;;;;;;3.00;1.52;;;;;;;4.74;46.85;95721.41;2073081;28;20194;-57
2024/01/16 14:04:29;;;;;;;6.72;1.80;;;;;;;5.45;46.81;95728.28;2073011;28;20206;-57
2024/01/16 14:05:31;;;;;;;8.20;1.50;;;;;;;5.68;45.35;95708.41;2068202;28;20290;-59
2024/01/16 14:06:33;;;;;;;3.72;1.52;;;;;;;5.58;44.88;95715.69;2069602;28;20573;-58
2024/01/16 14:07:55;;;;;;;4.78;1.40;;;;;;;5.13;45.89;95719.16;2072753;28;20237;-58
2024/01/16 14:08:57;;;;;;;4.47;1.73;;;;;;;4.77;46.31;95717.03;2072399;28;20225;-58
2024/01/16 14:09:59;;;;;;;8.57;1.80;;;;;;;4.74;46.54;95720.56;2064171;28;20199;-59
2024/01/16 14:11:00;;;;;;;5.43;1.83;;;;;;;5.09;46.25;95713.25;2072661;28;20198;-59
2024/01/16 14:12:03;;;;;;;6.75;2.00;;;;;;;5.12;45.63;95720.06;2072353;28;20237;-58
2024/01/16 14:13:04;;;;;;;3.85;1.55;;;;;;;5.04;45.77;95718.59;2071200;28;20803;-58
2024/01/16 14:14:06;;;;;;;9.38;2.05;;;;;;;4.74;46.96;95720.56;2071971;28;20281;-59
2024/01/16 14:15:15;;;;;;;5.15;1.88;;;;;;;5.12;46.98;95720.06;2072335;28;20566;-59
2024/01/16 14:16:17;;;;;;;4.50;1.55;;;;;;;4.84;46.09;95713.34;2071771;28;20210;-59
2024/01/16 14:17:37;;;;;;;7.07;1.73;;;;;;;5.35;45.05;95714.00;2071814;28;20202;-59
2024/01/16 14:18:39;;;;;;;6.03;1.75;;;;;;;5.71;46.76;95713.44;2072753;28;20279;-59